createdAt,value
2023-01-22T00:00:02.218Z,102542.53
2023-01-22T00:02:30.130Z,102539.81
2023-01-22T00:04:57.998Z,102548.13
2023-01-22T00:07:25.914Z,102543.53
2023-01-22T00:09:53.828Z,102491.16
2023-01-22T00:12:21.703Z,102549.63
2023-01-22T00:14:51.006Z,102546.06
2023-01-22T00:17:18.869Z,102541.53
2023-01-22T00:19:46.752Z,102542.88
2023-01-22T00:22:14.699Z,102548.78
2023-01-22T00:24:44.919Z,102514.56
2023-01-22T00:27:12.801Z,102537.44
2023-01-22T00:29:41.029Z,102540.63
2023-01-22T00:32:10.689Z,102421.59
2023-01-22T00:34:38.601Z,102527.03
2023-01-22T00:37:06.502Z,102519.75
2023-01-22T00:39:34.408Z,102511.78
2023-01-22T00:42:02.609Z,102505.66
2023-01-22T00:44:30.536Z,102511.78
2023-01-22T00:46:58.449Z,102517.22
2023-01-22T00:49:27.687Z,102516.38
2023-01-22T00:51:55.886Z,102468.72
2023-01-22T00:54:23.812Z,102505.50
2023-01-22T00:56:51.719Z,102474.28
2023-01-22T00:59:19.765Z,102486.16
2023-01-22T01:01:47.608Z,102500.91
2023-01-22T01:04:15.527Z,102508.22
2023-01-22T01:06:44.869Z,102504.31
2023-01-22T01:09:12.773Z,102516.38
2023-01-22T01:11:41.017Z,102507.38
2023-01-22T01:14:08.898Z,102519.09
2023-01-22T01:16:36.759Z,102507.19
2023-01-22T01:19:05.528Z,102493.59
2023-01-22T01:21:33.832Z,102490.03
2023-01-22T01:24:03.217Z,102491.06
2023-01-22T01:26:31.158Z,102355.78
2023-01-22T01:28:59.175Z,102485.44
2023-01-22T01:31:27.411Z,102487.31
2023-01-22T01:33:55.382Z,102485.63
2023-01-22T01:36:46.783Z,102489.19
2023-01-22T01:39:13.628Z,102484.59
2023-01-22T01:41:41.571Z,102489.19
2023-01-22T01:44:11.001Z,102487.50
2023-01-22T01:46:41.548Z,102481.03
2023-01-22T01:49:13.502Z,102416.78
2023-01-22T01:51:41.698Z,102482.06
2023-01-22T01:54:11.458Z,102483.75
2023-01-22T01:56:42.231Z,102482.72
2023-01-22T01:59:12.053Z,102476.44
2023-01-22T02:01:40.254Z,102411.00
2023-01-22T02:04:08.210Z,102474.75
2023-01-22T02:06:36.072Z,102472.19
2023-01-22T02:09:03.976Z,102435.59
2023-01-22T02:11:31.894Z,102473.91
2023-01-22T02:14:02.568Z,102475.75
2023-01-22T02:16:30.598Z,102474.75
2023-01-22T02:18:58.519Z,102473.91
2023-01-22T02:21:33.856Z,102472.03
2023-01-22T02:24:01.826Z,102467.78
2023-01-22T02:26:29.772Z,102460.47
2023-01-22T02:28:57.643Z,102460.31
2023-01-22T02:31:25.868Z,102464.91
2023-01-22T02:33:53.990Z,102473.22
2023-01-22T02:36:22.408Z,102465.06
2023-01-22T02:38:51.703Z,102461.50
2023-01-22T02:41:19.860Z,102466.94
2023-01-22T02:43:47.718Z,102459.63
2023-01-22T02:46:15.629Z,102465.91
2023-01-22T02:48:43.512Z,102457.59
2023-01-22T02:51:11.390Z,102469.31
2023-01-22T02:53:39.278Z,102461.50
2023-01-22T02:56:09.058Z,102432.50
2023-01-22T02:58:37.050Z,102459.47
2023-01-22T03:01:18.971Z,102457.28
2023-01-22T03:03:47.314Z,102450.63
2023-01-22T03:06:16.166Z,102450.47
2023-01-22T03:08:44.481Z,102451.47
2023-01-22T03:11:13.718Z,102431.97
2023-01-22T03:13:58.848Z,102425.84
2023-01-22T03:16:44.145Z,102436.00
2023-01-22T03:19:29.789Z,102431.59
2023-01-22T03:21:57.730Z,102438.91
2023-01-22T03:24:25.620Z,102422.47
2023-01-22T03:26:54.939Z,102432.66
2023-01-22T03:29:22.846Z,102430.75
2023-01-22T03:31:51.014Z,102425.31
2023-01-22T03:34:19.821Z,102427.22
2023-01-22T03:36:47.821Z,102427.91
2023-01-22T03:39:15.845Z,102434.31
2023-01-22T03:41:44.000Z,102440.81
2023-01-22T03:44:14.280Z,102430.81
2023-01-22T03:46:42.169Z,102435.38
2023-01-22T03:49:10.199Z,102439.75
2023-01-22T03:51:38.426Z,102426.03
2023-01-22T03:54:06.434Z,102443.31
2023-01-22T03:56:34.477Z,102435.16
2023-01-22T03:59:02.336Z,102436.19
2023-01-22T04:01:31.692Z,102440.59
2023-01-22T04:03:59.927Z,102432.66
2023-01-22T04:06:27.941Z,102435.16
2023-01-22T04:08:55.866Z,102426.16
2023-01-22T04:11:24.432Z,102436.38
2023-01-22T04:13:52.326Z,102430.09
2023-01-22T04:16:20.306Z,102431.97
2023-01-22T04:18:49.738Z,102429.63
2023-01-22T04:21:17.932Z,102432.34
2023-01-22T04:23:45.779Z,102432.34
2023-01-22T04:26:13.679Z,102395.38
2023-01-22T04:28:41.518Z,102429.63
2023-01-22T04:31:10.179Z,102428.75
2023-01-22T04:33:38.112Z,102427.06
2023-01-22T04:36:07.569Z,102408.25
2023-01-22T04:38:35.444Z,102429.41
2023-01-22T04:41:03.605Z,102430.63
2023-01-22T04:43:31.512Z,102426.03
2023-01-22T04:45:59.466Z,102435.03
2023-01-22T04:48:27.425Z,102428.56
2023-01-22T04:50:55.655Z,102429.78
2023-01-22T04:53:25.101Z,102429.41
2023-01-22T04:55:53.024Z,102425.84
2023-01-22T04:58:20.945Z,102436.72
2023-01-22T05:00:48.800Z,102433.84
2023-01-22T05:03:16.735Z,102437.56
2023-01-22T05:05:44.623Z,102440.28
2023-01-22T05:08:12.579Z,102437.56
2023-01-22T05:10:41.887Z,102437.56
2023-01-22T05:13:10.053Z,102434.84
2023-01-22T05:15:37.942Z,102439.28
2023-01-22T05:18:06.014Z,102437.56
2023-01-22T05:20:33.925Z,102437.41
2023-01-22T05:23:02.082Z,102436.56
2023-01-22T05:25:30.052Z,102421.97
2023-01-22T05:27:59.315Z,102427.53
2023-01-22T05:30:27.267Z,102426.53
2023-01-22T05:32:57.258Z,102429.25
2023-01-22T05:35:25.165Z,102408.75
2023-01-22T05:37:53.026Z,102421.09
2023-01-22T05:40:21.233Z,102425.50
2023-01-22T05:42:49.446Z,102432.81
2023-01-22T05:45:18.751Z,102425.50
2023-01-22T05:47:46.738Z,102425.50
2023-01-22T05:50:14.612Z,102422.28
2023-01-22T05:52:42.793Z,102440.97
2023-01-22T05:55:10.998Z,102439.09
2023-01-22T05:57:38.894Z,102446.41
2023-01-22T06:00:10.311Z,102455.41
2023-01-22T06:02:39.913Z,102452.69
2023-01-22T06:05:09.140Z,102449.13
2023-01-22T06:07:37.080Z,102447.25
2023-01-22T06:10:05.441Z,102446.41
2023-01-22T06:12:33.603Z,102446.41
2023-01-22T06:15:01.480Z,102444.53
2023-01-22T06:17:29.424Z,102430.66
2023-01-22T06:19:58.722Z,102444.53
2023-01-22T06:22:26.856Z,102452.84
2023-01-22T06:24:54.785Z,102447.25
2023-01-22T06:27:22.719Z,102448.09
2023-01-22T06:29:50.610Z,102445.38
2023-01-22T06:32:18.520Z,102424.50
2023-01-22T06:34:46.514Z,102443.53
2023-01-22T06:37:15.799Z,102443.69
2023-01-22T06:39:43.717Z,102446.03
2023-01-22T06:42:11.883Z,102442.66
2023-01-22T06:44:39.708Z,102447.91
2023-01-22T06:47:07.578Z,102448.09
2023-01-22T06:49:35.481Z,102446.22
2023-01-22T06:52:03.604Z,102448.94
2023-01-22T06:54:32.904Z,102447.06
2023-01-22T06:57:00.823Z,102452.50
2023-01-22T06:59:28.717Z,102458.78
2023-01-22T07:01:56.775Z,102453.34
2023-01-22T07:04:24.689Z,102456.06
2023-01-22T07:06:52.575Z,102462.34
2023-01-22T07:09:20.492Z,102460.47
2023-01-22T07:11:50.455Z,102461.50
2023-01-22T07:14:28.838Z,102464.22
2023-01-22T07:17:03.780Z,102472.19
2023-01-22T07:19:31.681Z,102464.56
2023-01-22T07:21:59.960Z,102469.66
2023-01-22T07:24:27.904Z,102477.81
2023-01-22T07:26:57.182Z,102444.28
2023-01-22T07:29:25.096Z,102484.09
2023-01-22T07:31:53.412Z,102487.00
2023-01-22T07:34:21.577Z,102491.22
2023-01-22T07:36:49.463Z,102497.69
2023-01-22T07:39:17.734Z,102496.81
2023-01-22T07:41:46.973Z,102473.47
2023-01-22T07:44:16.388Z,102499.53
2023-01-22T07:46:44.384Z,102496.81
2023-01-22T07:49:12.404Z,102505.81
2023-01-22T07:51:40.567Z,102510.41
2023-01-22T07:54:09.765Z,102508.53
2023-01-22T07:56:37.688Z,102504.81
2023-01-22T07:59:05.994Z,102503.09
2023-01-22T08:01:35.807Z,102501.41
2023-01-22T08:04:03.801Z,102501.25
2023-01-22T08:06:31.700Z,102507.69
2023-01-22T08:09:00.113Z,102503.97
2023-01-22T08:11:28.398Z,102507.69
2023-01-22T08:13:56.305Z,102515.69
2023-01-22T08:16:24.350Z,102508.06
2023-01-22T08:18:53.860Z,102512.13
2023-01-22T08:21:22.085Z,102520.25
2023-01-22T08:23:49.983Z,102520.25
2023-01-22T08:26:17.884Z,102512.97
2023-01-22T08:28:45.802Z,102520.25
2023-01-22T08:31:26.968Z,102457.50
2023-01-22T08:33:58.890Z,102514.50
2023-01-22T08:36:26.956Z,102524.69
2023-01-22T08:38:54.874Z,102526.56
2023-01-22T08:41:23.119Z,102521.97
2023-01-22T08:43:52.060Z,102522.81
2023-01-22T08:46:19.968Z,102524.69
2023-01-22T08:48:48.879Z,102526.56
2023-01-22T08:51:18.536Z,102511.94
2023-01-22T08:53:46.545Z,102515.53
2023-01-22T08:56:14.423Z,102520.25
2023-01-22T08:58:42.489Z,102513.81
2023-01-22T09:01:15.824Z,102515.53
2023-01-22T09:03:43.915Z,102519.09
2023-01-22T09:06:11.870Z,102514.66
2023-01-22T09:08:41.107Z,102511.78
2023-01-22T09:11:09.306Z,102521.81
2023-01-22T09:13:37.179Z,102535.41
2023-01-22T09:16:06.014Z,102526.38
2023-01-22T09:18:33.988Z,102531.81
2023-01-22T09:21:02.211Z,102530.81
2023-01-22T09:23:30.096Z,102522.81
2023-01-22T09:25:59.413Z,102524.53
2023-01-22T09:28:27.252Z,102521.81
2023-01-22T09:30:55.484Z,102505.88
2023-01-22T09:33:23.470Z,102525.53
2023-01-22T09:35:51.361Z,102520.78
2023-01-22T09:38:19.818Z,102536.41
2023-01-22T09:40:49.748Z,102542.69
2023-01-22T09:43:26.080Z,102520.31
2023-01-22T09:45:55.380Z,102554.41
2023-01-22T09:48:23.258Z,102557.13
2023-01-22T09:50:51.473Z,102554.75
2023-01-22T09:53:20.053Z,102550.00
2023-01-22T09:55:48.828Z,102558.00
2023-01-22T09:58:17.645Z,102546.25
2023-01-22T10:00:49.218Z,102511.84
2023-01-22T10:03:22.520Z,102542.69
2023-01-22T10:05:52.731Z,102547.13
2023-01-22T10:08:22.481Z,102544.41
2023-01-22T10:10:52.072Z,102541.69
2023-01-22T10:13:21.312Z,102541.69
2023-01-22T10:15:51.134Z,102542.53
2023-01-22T10:18:29.219Z,102528.78
2023-01-22T10:20:57.125Z,102539.81
2023-01-22T10:23:26.583Z,102532.34
2023-01-22T10:25:56.906Z,102556.94
2023-01-22T10:28:25.754Z,102550.69
2023-01-22T10:30:58.855Z,102545.25
2023-01-22T10:33:28.149Z,102547.97
2023-01-22T10:35:57.842Z,102526.59
2023-01-22T10:38:27.967Z,102540.63
2023-01-22T10:40:59.867Z,102531.66
2023-01-22T10:43:34.717Z,102532.47
2023-01-22T10:46:06.819Z,102540.63
2023-01-22T10:48:34.981Z,102543.34
2023-01-22T10:51:14.333Z,102519.47
2023-01-22T10:53:46.927Z,102531.66
2023-01-22T10:56:14.886Z,102440.06
2023-01-22T10:58:48.280Z,102536.03
2023-01-22T11:01:29.683Z,102528.75
2023-01-22T11:03:57.595Z,102527.03
2023-01-22T11:06:27.435Z,102526.03
2023-01-22T11:08:59.355Z,102508.41
2023-01-22T11:11:30.314Z,102460.91
2023-01-22T11:14:03.883Z,102500.09
2023-01-22T11:16:36.071Z,102526.03
2023-01-22T11:19:07.233Z,102525.16
2023-01-22T11:21:38.098Z,102520.59
2023-01-22T11:24:09.968Z,102503.81
2023-01-22T11:26:44.621Z,102464.66
2023-01-22T11:29:18.868Z,102526.88
2023-01-22T11:32:05.929Z,102401.25
2023-01-22T11:34:43.464Z,102517.91
2023-01-22T11:37:13.611Z,102512.66
2023-01-22T11:39:49.227Z,102534.00
2023-01-22T11:42:23.710Z,102519.94
2023-01-22T11:45:01.282Z,102514.31
2023-01-22T11:47:40.923Z,102526.03
2023-01-22T11:50:17.446Z,102521.44
2023-01-22T11:52:49.127Z,102489.41
2023-01-22T11:55:26.740Z,102527.91
2023-01-22T11:57:58.366Z,102523.31
2023-01-22T12:00:31.904Z,102526.03
2023-01-22T12:03:18.265Z,102517.88
2023-01-22T12:05:47.421Z,102516.84
2023-01-22T12:08:21.709Z,102520.44
2023-01-22T12:11:31.207Z,102526.88
2023-01-22T12:14:13.109Z,102521.44
2023-01-22T12:16:45.855Z,102518.88
2023-01-22T12:19:34.870Z,102510.41
2023-01-22T12:22:05.390Z,102505.34
2023-01-22T12:24:35.556Z,102521.44
2023-01-22T12:27:04.906Z,102524.16
2023-01-22T12:29:34.670Z,102521.44
2023-01-22T12:32:08.938Z,102519.56
2023-01-22T12:34:41.048Z,102522.28
2023-01-22T12:37:09.157Z,102524.16
2023-01-22T12:39:39.424Z,102518.72
2023-01-22T12:42:14.721Z,102476.50
2023-01-22T12:44:49.977Z,102519.25
2023-01-22T12:47:21.263Z,102513.31
2023-01-22T12:49:54.579Z,102525.84
2023-01-22T12:52:35.627Z,102522.28
2023-01-22T12:55:04.590Z,102498.03
2023-01-22T12:57:39.788Z,102523.13
2023-01-22T13:00:24.773Z,102519.56
2023-01-22T13:02:52.719Z,102523.13
2023-01-22T13:05:35.740Z,102404.81
2023-01-22T13:08:04.661Z,102526.72
2023-01-22T13:10:33.710Z,102522.13
2023-01-22T13:13:04.541Z,102499.75
2023-01-22T13:15:33.261Z,102532.16
2023-01-22T13:18:07.947Z,102513.97
2023-01-22T13:20:38.588Z,102499.75
2023-01-22T13:23:07.146Z,102526.72
2023-01-22T13:25:35.370Z,102520.25
2023-01-22T13:28:03.873Z,102522.13
2023-01-22T13:30:32.028Z,102522.13
2023-01-22T13:33:07.762Z,102524.00
2023-01-22T13:35:42.271Z,102478.91
2023-01-22T13:38:20.195Z,102522.13
2023-01-22T13:40:51.583Z,102527.56
2023-01-22T13:43:19.859Z,102496.34
2023-01-22T13:45:47.727Z,102525.84
2023-01-22T13:48:17.061Z,102511.63
2023-01-22T13:50:48.884Z,102524.16
2023-01-22T13:53:26.037Z,102531.28
2023-01-22T13:55:53.960Z,102530.28
2023-01-22T13:58:46.729Z,102531.97
2023-01-22T14:01:27.218Z,102533.84
2023-01-22T14:03:59.563Z,102533.00
2023-01-22T14:06:28.913Z,102530.28
2023-01-22T14:08:57.726Z,102534.19
2023-01-22T14:11:26.002Z,102513.34
2023-01-22T14:13:54.296Z,102524.38
2023-01-22T14:16:22.189Z,102549.31
2023-01-22T14:18:50.165Z,102548.28
2023-01-22T14:21:18.317Z,102493.00
2023-01-22T14:23:47.608Z,102540.16
2023-01-22T14:26:15.517Z,102548.44
2023-01-22T14:28:43.660Z,102553.91
2023-01-22T14:31:11.619Z,102553.72
2023-01-22T14:33:39.633Z,102562.91
2023-01-22T14:36:08.422Z,102561.88
2023-01-22T14:38:36.332Z,102566.47
2023-01-22T14:41:06.584Z,102568.00
2023-01-22T14:43:35.580Z,102577.34
2023-01-22T14:46:03.522Z,102578.19
2023-01-22T14:48:31.484Z,102584.44
2023-01-22T14:50:59.783Z,102577.13
2023-01-22T14:53:30.155Z,102572.06
2023-01-22T14:55:58.121Z,102572.06
2023-01-22T14:58:27.425Z,102582.78
2023-01-22T15:00:55.605Z,102580.91
2023-01-22T15:03:23.512Z,102585.50
2023-01-22T15:05:52.260Z,102588.88
2023-01-22T15:08:20.125Z,102601.81
2023-01-22T15:10:48.322Z,102593.66
2023-01-22T15:13:16.255Z,102596.16
2023-01-22T15:15:45.585Z,102601.59
2023-01-22T15:18:14.772Z,102576.34
2023-01-22T15:20:42.700Z,102609.97
2023-01-22T15:23:10.554Z,102619.78
2023-01-22T15:25:38.463Z,102608.09
2023-01-22T15:28:06.666Z,102609.97
2023-01-22T15:30:34.732Z,102610.81
2023-01-22T15:33:04.393Z,102609.97
2023-01-22T15:35:32.280Z,102608.91
2023-01-22T15:38:00.208Z,102620.84
2023-01-22T15:40:28.206Z,102625.22
2023-01-22T15:42:56.485Z,102613.69
2023-01-22T15:45:24.379Z,102627.94
2023-01-22T15:47:53.541Z,102625.22
2023-01-22T15:50:22.817Z,102625.41
2023-01-22T15:52:54.075Z,102625.22
2023-01-22T15:55:22.036Z,102625.22
2023-01-22T15:57:49.910Z,102625.22
2023-01-22T16:00:18.665Z,102626.28
2023-01-22T16:02:47.074Z,102627.13
2023-01-22T16:05:15.131Z,102627.94
2023-01-22T16:07:44.438Z,102621.69
2023-01-22T16:10:12.636Z,102619.13
2023-01-22T16:12:40.794Z,102618.13
2023-01-22T16:15:12.161Z,102623.34
2023-01-22T16:17:40.013Z,102620.84
2023-01-22T16:20:09.922Z,102614.34
2023-01-22T16:22:38.155Z,102620.84
2023-01-22T16:25:08.066Z,102616.25
2023-01-22T16:27:35.975Z,102615.41
2023-01-22T16:30:03.972Z,102612.69
2023-01-22T16:32:32.136Z,102622.50
2023-01-22T16:35:00.031Z,102562.97
2023-01-22T16:37:27.936Z,102627.13
2023-01-22T16:39:55.809Z,102625.22
2023-01-22T16:42:25.363Z,102624.41
2023-01-22T16:44:53.254Z,102618.44
2023-01-22T16:47:21.472Z,102620.84
2023-01-22T16:49:49.764Z,102615.41
2023-01-22T16:52:22.784Z,102610.66
2023-01-22T16:54:51.113Z,102613.34
2023-01-22T16:57:19.548Z,102610.66
2023-01-22T16:59:48.859Z,102619.78
2023-01-22T17:02:18.998Z,102625.22
2023-01-22T17:04:47.031Z,102594.69
2023-01-22T17:07:31.570Z,102625.22
2023-01-22T17:10:01.198Z,102624.41
2023-01-22T17:12:29.742Z,102619.81
2023-01-22T17:14:59.097Z,102610.13
2023-01-22T17:17:27.003Z,102604.69
2023-01-22T17:19:54.949Z,102631.72
2023-01-22T17:22:24.284Z,102639.88
2023-01-22T17:24:52.670Z,102639.88
2023-01-22T17:27:21.536Z,102640.72
2023-01-22T17:29:49.396Z,102635.44
2023-01-22T17:32:19.001Z,102634.41
2023-01-22T17:34:46.886Z,102639.88
2023-01-22T17:37:14.784Z,102638.00
2023-01-22T17:39:43.471Z,102639.88
2023-01-22T17:42:11.705Z,102641.53
2023-01-22T17:44:40.418Z,102637.13
2023-01-22T17:47:08.936Z,102640.72
2023-01-22T17:49:38.557Z,102642.75
2023-01-22T17:52:09.064Z,102645.28
2023-01-22T17:54:37.084Z,102653.25
2023-01-22T17:57:05.594Z,102649.69
2023-01-22T17:59:33.508Z,102653.44
2023-01-22T18:02:01.699Z,102658.69
2023-01-22T18:04:31.476Z,102644.97
2023-01-22T18:07:00.850Z,102630.72
2023-01-22T18:09:28.748Z,102655.97
2023-01-22T18:11:58.472Z,102637.50
2023-01-22T18:14:30.258Z,102662.63
2023-01-22T18:16:58.129Z,102660.56
2023-01-22T18:19:26.073Z,102667.03
2023-01-22T18:21:54.434Z,102667.91
2023-01-22T18:24:24.190Z,102614.22
2023-01-22T18:26:54.301Z,102660.22
2023-01-22T18:29:22.216Z,102670.63
2023-01-22T18:31:50.161Z,102674.16
2023-01-22T18:34:18.149Z,102678.78
2023-01-22T18:36:46.036Z,102677.91
2023-01-22T18:39:15.635Z,102679.59
2023-01-22T18:41:47.007Z,102654.84
2023-01-22T18:44:16.204Z,102672.63
2023-01-22T18:46:47.436Z,102688.78
2023-01-22T18:49:18.557Z,102685.03
2023-01-22T18:51:46.588Z,102690.47
2023-01-22T18:54:14.546Z,102695.91
2023-01-22T18:56:42.454Z,102686.91
2023-01-22T18:59:12.986Z,102698.63
2023-01-22T19:01:42.796Z,102691.50
2023-01-22T19:04:17.813Z,102666.53
2023-01-22T19:06:48.251Z,102696.09
2023-01-22T19:09:16.439Z,102705.94
2023-01-22T19:11:47.005Z,102699.66
2023-01-22T19:14:17.204Z,102704.25
2023-01-22T19:16:48.215Z,102715.13
2023-01-22T19:19:16.324Z,102717.84
2023-01-22T19:21:47.693Z,102714.09
2023-01-22T19:24:16.321Z,102714.28
2023-01-22T19:26:46.469Z,102710.53
2023-01-22T19:29:17.463Z,102706.13
2023-01-22T19:31:47.175Z,102712.41
2023-01-22T19:34:16.561Z,102716.97
2023-01-22T19:36:44.474Z,102734.16
2023-01-22T19:39:13.304Z,102721.41
2023-01-22T19:41:41.524Z,102737.72
2023-01-22T19:44:09.907Z,102741.28
2023-01-22T19:46:39.247Z,102748.59
2023-01-22T19:49:07.430Z,102735.84
2023-01-22T19:51:35.417Z,102727.69
2023-01-22T19:54:04.606Z,102735.00
2023-01-22T19:56:33.569Z,102736.69
2023-01-22T19:59:02.697Z,102724.81
2023-01-22T20:01:30.942Z,102735.66
2023-01-22T20:04:00.613Z,102738.38
2023-01-22T20:06:29.253Z,102739.38
2023-01-22T20:08:57.465Z,102748.41
2023-01-22T20:11:25.690Z,102739.75
2023-01-22T20:13:53.601Z,102751.13
2023-01-22T20:16:22.422Z,102748.59
2023-01-22T20:18:50.558Z,102743.16
2023-01-22T20:21:20.269Z,102750.25
2023-01-22T20:23:48.628Z,102750.47
2023-01-22T20:26:17.158Z,102754.88
2023-01-22T20:28:45.468Z,102756.75
2023-01-22T20:31:15.000Z,102758.63
2023-01-22T20:33:42.958Z,102750.47
2023-01-22T20:36:11.684Z,102749.78
2023-01-22T20:38:40.971Z,102759.47
2023-01-22T20:41:10.339Z,102741.78
2023-01-22T20:43:39.187Z,102765.75
2023-01-22T20:46:08.152Z,102760.47
2023-01-22T20:48:36.141Z,102761.34
2023-01-22T20:51:04.592Z,102749.09
2023-01-22T20:53:32.501Z,102726.84
2023-01-22T20:56:03.104Z,102764.72
2023-01-22T20:58:31.435Z,102763.03
2023-01-22T21:01:03.961Z,102760.31
2023-01-22T21:03:32.166Z,102758.78
2023-01-22T21:06:02.890Z,102764.06
2023-01-22T21:08:30.779Z,102767.63
2023-01-22T21:10:59.457Z,102760.47
2023-01-22T21:13:28.894Z,102765.91
2023-01-22T21:15:56.801Z,102765.91
2023-01-22T21:18:24.906Z,102772.22
2023-01-22T21:20:53.083Z,102780.38
2023-01-22T21:23:20.988Z,102774.06
2023-01-22T21:25:48.931Z,102762.69
2023-01-22T21:28:16.835Z,102764.91
2023-01-22T21:30:46.431Z,102776.63
2023-01-22T21:33:14.397Z,102770.34
2023-01-22T21:35:42.248Z,102770.34
2023-01-22T21:38:10.265Z,102774.91
2023-01-22T21:40:38.584Z,102697.94
2023-01-22T21:43:20.739Z,102771.34
2023-01-22T21:46:07.738Z,102770.34
2023-01-22T21:48:36.969Z,102765.91
2023-01-22T21:51:05.175Z,102749.09
2023-01-22T21:53:33.119Z,102774.06
2023-01-22T21:56:01.206Z,102772.22
2023-01-22T21:58:29.304Z,102724.13
2023-01-22T22:01:04.251Z,102764.38
2023-01-22T22:03:34.397Z,102772.22
2023-01-22T22:06:02.582Z,102753.16
2023-01-22T22:08:30.502Z,102774.06
2023-01-22T22:10:58.658Z,102768.13
2023-01-22T22:13:26.541Z,102773.22
2023-01-22T22:16:09.443Z,102767.78
2023-01-22T22:18:37.536Z,102765.91
2023-01-22T22:21:06.909Z,102772.22
2023-01-22T22:23:35.240Z,102766.06
2023-01-22T22:26:03.175Z,102713.25
2023-01-22T22:28:31.092Z,102773.22
2023-01-22T22:31:05.202Z,102767.94
2023-01-22T22:33:33.165Z,102737.69
2023-01-22T22:36:01.720Z,102777.81
2023-01-22T22:38:29.739Z,102770.50
2023-01-22T22:41:02.272Z,102776.94
2023-01-22T22:43:33.220Z,102779.66
2023-01-22T22:46:06.554Z,102776.94
2023-01-22T22:48:34.601Z,102771.34
2023-01-22T22:51:02.797Z,102775.78
2023-01-22T22:53:30.704Z,102773.22
2023-01-22T22:55:58.595Z,102773.91
2023-01-22T22:58:26.501Z,102778.31
2023-01-22T23:00:54.673Z,102780.00
2023-01-22T23:03:24.074Z,102779.16
2023-01-22T23:05:51.944Z,102776.44
2023-01-22T23:08:19.803Z,102773.72
2023-01-22T23:10:47.971Z,102776.44
2023-01-22T23:13:15.860Z,102779.16
2023-01-22T23:15:43.706Z,102697.59
2023-01-22T23:18:11.609Z,102782.06
2023-01-22T23:20:40.860Z,102665.28
2023-01-22T23:23:09.039Z,102784.78
2023-01-22T23:25:36.995Z,102782.88
2023-01-22T23:28:05.236Z,102774.72
2023-01-22T23:30:33.206Z,102781.03
2023-01-22T23:33:01.479Z,102784.59
2023-01-22T23:35:29.373Z,102781.03
2023-01-22T23:37:58.659Z,102787.50
2023-01-22T23:40:26.596Z,102793.94
2023-01-22T23:42:54.742Z,102761.47
2023-01-22T23:45:22.606Z,102801.09
2023-01-22T23:47:52.231Z,102808.41
2023-01-22T23:50:20.561Z,102801.09
2023-01-22T23:52:48.873Z,102799.38
2023-01-22T23:55:18.183Z,102802.09
2023-01-22T23:57:46.119Z,102799.38
